< < Back
Terminal Aerodrome Forecast


Current Version              Previous Versions:   1  2  3  4  5  6  7  8  9  

Terminal Aerodrome Forecast

417
FTUS42 KFFC 311121
TAFMCN
TAF
KMCN 311121Z 3112/0112 00000KT 5SM BR SKC
     FM311400 18003KT P6SM SCT035
     FM311700 24007KT P6SM BKN040
     FM312100 28010KT P6SM VCSH OVC040 PROB30 3121/0102 -TSRA
      BKN025CB
     FM010200 26005KT P6SM SCT050 BKN100=

Latest METAR

117
SAUS80 KWBC 312000 CCA
MTRMCN
METAR KMCN 311953Z 27013G18KT 10SM FEW055 25/13 A2996 RMK AO2 SLP143
T02500128


USA.gov is the U.S. government's official web portal to all federal, state and local government web resources and services.